KCKV/CKV METAR and TAF weather

Enter ICAO airport designator
Station Type Date Time Source
KCKV METAR 2019/02/23 02:52 UTC NOAA

KCKV 230252Z AUTO 07005KT 8SM OVC006 07/06 A3014 RMK AO2 RAE46 SLP209 P0002 60008 T00720056 58019


Station Type Date Time Source
KCKV Decoded METAR 2019/02/23 02:52 UTC NOAA

CLARKSVILLE OUTLAW FIELD, TN, United States (KCKV) 36-37N 87-25W 165M
Feb 22, 2019 - 09:52 PM EST / 2019.02.23 0252 UTC
Wind: from the ENE (070 degrees) at 6 MPH (5 KT):0
Visibility: 8 mile(s):0
Sky conditions: overcast
Precipitation last hour: 0.02 inches
Temperature: 45.0 F (7.2 C)
Dew Point: 42.1 F (5.6 C)
Relative Humidity: 89%
Pressure (altimeter): 30.14 in. Hg (1020 hPa)
Pressure tendency: 0.06 inches (1.9 hPa) lower than three hours ago
ob: KCKV 230252Z AUTO 07005KT 8SM OVC006 07/06 A3014 RMK AO2 RAE46 SLP209 P0002 60008 T00720056 58019
cycle: 3

Station Type Date Time Source
KCKV TAF 2019/02/22 21:27 UTC NOAA

TAF
AMD KCKV 222124Z 2221/2318 09009KT P6SM -RA SCT008 OVC015
TEMPO 2221/2301 3SM -RA BR OVC008
FM230500 08005KT 3SM SHRA VCTS OVC007CB
FM230800 12008KT 2SM TSRA OVC007CB
FM231000 16010KT 2SM RA OVC004


Example: see airport list